createdAt,value
2023-11-18T00:06:40.080Z,5.76
2023-11-18T00:26:40.082Z,5.84
2023-11-18T00:46:39.911Z,5.70
2023-11-18T01:06:39.969Z,5.83
2023-11-18T01:26:39.924Z,5.83
2023-11-18T01:46:39.882Z,5.89
2023-11-18T02:06:40.024Z,5.78
2023-11-18T02:26:39.980Z,5.66
2023-11-18T02:46:39.924Z,5.61
2023-11-18T03:06:39.882Z,5.63
2023-11-18T03:26:39.848Z,5.69
2023-11-18T03:46:39.908Z,5.68
2023-11-18T04:06:39.864Z,5.67
2023-11-18T04:26:39.827Z,5.71
2023-11-18T04:46:39.898Z,5.73
2023-11-18T05:06:39.868Z,5.73
2023-11-18T05:26:39.838Z,5.82
2023-11-18T05:46:39.913Z,5.79
2023-11-18T06:06:39.974Z,5.96
2023-11-18T06:26:39.838Z,5.97
2023-11-18T06:46:39.811Z,5.97
2023-11-18T07:06:39.761Z,5.96
2023-11-18T07:26:39.833Z,6.11
2023-11-18T07:46:39.826Z,6.24
2023-11-18T08:06:39.758Z,6.35
2023-11-18T08:26:39.843Z,6.55
2023-11-18T08:46:39.846Z,6.70
2023-11-18T09:06:39.748Z,6.78
2023-11-18T09:26:39.723Z,7.01
2023-11-18T09:46:39.687Z,7.19
2023-11-18T10:06:39.751Z,7.48
2023-11-18T10:26:39.718Z,7.60
2023-11-18T10:46:39.690Z,7.80
2023-11-18T11:06:39.677Z,8.28
2023-11-18T11:26:39.640Z,8.81
2023-11-18T11:46:39.601Z,8.84
2023-11-18T12:06:39.682Z,8.68
2023-11-18T12:26:39.645Z,8.50
2023-11-18T12:46:39.741Z,8.52
2023-11-18T13:06:39.599Z,8.69
2023-11-18T13:26:39.575Z,8.54
2023-11-18T13:46:39.544Z,8.41
2023-11-18T14:06:39.519Z,8.25
2023-11-18T14:26:39.597Z,8.39
2023-11-18T14:46:39.559Z,8.14
2023-11-18T15:06:39.588Z,7.84
2023-11-18T15:26:39.621Z,7.48
2023-11-18T16:06:39.549Z,6.92
2023-11-18T16:26:39.570Z,6.83
2023-11-18T16:46:39.537Z,6.76
2023-11-18T17:06:39.447Z,6.76
2023-11-18T17:26:39.426Z,6.86
2023-11-18T17:46:39.499Z,6.80
2023-11-18T18:06:39.505Z,6.70
2023-11-18T18:26:39.446Z,6.62
2023-11-18T18:46:39.390Z,6.77
2023-11-18T19:06:39.373Z,6.58
2023-11-18T19:26:39.451Z,6.38
2023-11-18T19:46:39.411Z,6.27
2023-11-18T20:06:39.367Z,6.11
2023-11-18T20:26:39.348Z,5.79
2023-11-18T20:46:39.312Z,5.49
2023-11-18T21:06:39.378Z,5.32
2023-11-18T21:26:39.419Z,5.28
2023-11-18T21:46:39.337Z,5.26
2023-11-18T22:06:39.404Z,5.24
2023-11-18T22:26:39.341Z,5.26
2023-11-18T22:46:39.300Z,5.39
2023-11-18T23:06:39.352Z,5.43
2023-11-18T23:26:39.316Z,5.37
2023-11-18T23:46:39.291Z,5.42
